createdAt,value
2023-05-16T00:02:08.936Z,95193.38
2023-05-16T00:04:38.956Z,95190.44
2023-05-16T00:07:08.535Z,95177.81
2023-05-16T00:09:38.049Z,95177.53
2023-05-16T00:12:09.683Z,95172.97
2023-05-16T00:14:39.178Z,95171.09
2023-05-16T00:17:11.985Z,95175.66
2023-05-16T00:19:42.121Z,95170.84
2023-05-16T00:22:12.198Z,95166.81
2023-05-16T00:24:41.698Z,95173.75
2023-05-16T00:27:12.504Z,95178.31
2023-05-16T00:29:41.959Z,95178.59
2023-05-16T00:32:11.624Z,95188.25
2023-05-16T00:34:41.342Z,95182.06
2023-05-16T00:37:10.939Z,95183.41
2023-05-16T00:39:40.796Z,95176.16
2023-05-16T00:42:11.599Z,95180.97
2023-05-16T00:44:41.389Z,95175.31
2023-05-16T00:47:11.578Z,95173.41
2023-05-16T00:49:41.263Z,95176.34
2023-05-16T00:52:11.584Z,95178.78
2023-05-16T00:54:42.977Z,95173.69
2023-05-16T00:57:13.853Z,95165.91
2023-05-16T00:59:43.970Z,95154.09
2023-05-16T01:02:14.262Z,95163.75
2023-05-16T01:04:44.906Z,95167.25
2023-05-16T01:07:14.481Z,95167.50
2023-05-16T01:09:44.023Z,95165.38
2023-05-16T01:12:25.177Z,95157.59
2023-05-16T01:15:07.394Z,95162.97
2023-05-16T01:17:54.906Z,95162.16
2023-05-16T01:20:39.266Z,95164.84
2023-05-16T01:23:40.217Z,95159.75
2023-05-16T01:26:17.757Z,95160.81
2023-05-16T01:28:48.662Z,95158.66
2023-05-16T01:31:19.129Z,95157.81
2023-05-16T01:33:49.746Z,95165.59
2023-05-16T01:36:27.253Z,95158.63
2023-05-16T01:39:09.007Z,95153.25
2023-05-16T01:41:56.215Z,95149.75
2023-05-16T01:44:33.651Z,95153.78
2023-05-16T01:47:10.973Z,95149.75
2023-05-16T01:49:51.694Z,95143.88
2023-05-16T01:52:29.521Z,95132.34
2023-05-16T01:55:00.484Z,95143.59
2023-05-16T01:57:32.949Z,95137.97
2023-05-16T02:00:03.913Z,95138.47
2023-05-16T02:02:43.601Z,95143.03
2023-05-16T02:05:13.189Z,95134.47
2023-05-16T02:07:42.834Z,95144.91
2023-05-16T02:10:14.591Z,95141.69
2023-05-16T02:12:45.465Z,95151.34
2023-05-16T02:15:15.116Z,95141.69
2023-05-16T02:17:44.634Z,95139.56
2023-05-16T02:20:15.091Z,95142.22
2023-05-16T02:22:47.026Z,95142.78
2023-05-16T02:25:17.130Z,95144.66
2023-05-16T02:27:49.293Z,95137.91
2023-05-16T02:30:19.179Z,95149.41
2023-05-16T02:32:49.256Z,95142.72
2023-05-16T02:35:20.313Z,95141.88
2023-05-16T02:37:49.852Z,95150.97
2023-05-16T02:40:19.989Z,95142.91
2023-05-16T02:42:51.211Z,95147.72
2023-05-16T02:45:20.697Z,95152.53
2023-05-16T02:47:50.256Z,95152.28
2023-05-16T02:50:21.732Z,95160.31
2023-05-16T02:52:51.323Z,95149.59
2023-05-16T02:55:22.636Z,95150.91
2023-05-16T02:57:53.862Z,95147.44
2023-05-16T03:00:23.630Z,95150.13
2023-05-16T03:02:53.155Z,95148.78
2023-05-16T03:05:23.049Z,95157.13
2023-05-16T03:07:53.669Z,95150.44
2023-05-16T03:10:23.357Z,95152.56
2023-05-16T03:12:54.277Z,95153.38
2023-05-16T03:15:25.732Z,95151.22
2023-05-16T03:17:55.392Z,95155.22
2023-05-16T03:20:26.385Z,95148.25
2023-05-16T03:22:56.038Z,95152.25
2023-05-16T03:25:26.656Z,95143.66
2023-05-16T03:27:57.609Z,95146.59
2023-05-16T03:30:27.551Z,95142.03
2023-05-16T03:32:57.546Z,95150.31
2023-05-16T03:35:27.366Z,95138.53
2023-05-16T03:37:57.372Z,95150.31
2023-05-16T03:40:27.053Z,95152.16
2023-05-16T03:42:57.992Z,95147.34
2023-05-16T03:45:27.889Z,95152.13
2023-05-16T03:47:57.919Z,95140.88
2023-05-16T03:50:27.555Z,95149.44
2023-05-16T03:52:57.036Z,95154.78
2023-05-16T03:55:26.666Z,95157.19
2023-05-16T03:57:57.737Z,95156.13
2023-05-16T04:00:27.849Z,95154.25
2023-05-16T04:02:57.490Z,95150.28
2023-05-16T04:05:27.189Z,95152.97
2023-05-16T04:07:56.919Z,95152.16
2023-05-16T04:10:26.520Z,95154.03
2023-05-16T04:12:57.360Z,95149.75
2023-05-16T04:15:26.969Z,95155.91
2023-05-16T04:17:56.779Z,95148.69
2023-05-16T04:20:26.360Z,95151.91
2023-05-16T04:22:55.833Z,95146.31
2023-05-16T04:25:25.797Z,95146.34
2023-05-16T04:27:57.286Z,95149.81
2023-05-16T04:30:27.042Z,95147.44
2023-05-16T04:32:57.142Z,95147.97
2023-05-16T04:35:28.285Z,95146.44
2023-05-16T04:37:58.041Z,95140.25
2023-05-16T04:40:27.783Z,95141.34
2023-05-16T04:42:58.869Z,95148.06
2023-05-16T04:45:28.424Z,95151.84
2023-05-16T04:47:58.485Z,95140.59
2023-05-16T04:50:28.013Z,95144.38
2023-05-16T04:52:57.946Z,95146.78
2023-05-16T04:55:27.668Z,95148.41
2023-05-16T04:57:58.767Z,95153.53
2023-05-16T05:00:28.714Z,95151.13
2023-05-16T05:02:58.512Z,95152.50
2023-05-16T05:05:28.354Z,95150.34
2023-05-16T05:08:00.372Z,95149.56
2023-05-16T05:10:31.205Z,95156.50
2023-05-16T05:13:02.167Z,95154.91
2023-05-16T05:15:32.722Z,95153.31
2023-05-16T05:18:02.412Z,95156.59
2023-05-16T05:20:32.061Z,95154.44
2023-05-16T05:23:01.592Z,95159.03
2023-05-16T05:25:31.248Z,95161.41
2023-05-16T05:28:02.141Z,95161.44
2023-05-16T05:30:31.681Z,95168.16
2023-05-16T05:33:01.218Z,95172.19
2023-05-16T05:35:30.835Z,95174.88
2023-05-16T05:38:00.501Z,95183.72
2023-05-16T05:40:30.184Z,95188.28
2023-05-16T05:43:01.101Z,95179.44
2023-05-16T05:45:30.630Z,95176.50
2023-05-16T05:48:00.413Z,95176.22
2023-05-16T05:50:29.954Z,95165.22
2023-05-16T05:52:59.533Z,95160.66
2023-05-16T05:55:29.480Z,95159.53
2023-05-16T05:57:59.197Z,95160.34
2023-05-16T06:00:30.384Z,95156.56
2023-05-16T06:03:00.072Z,95156.56
2023-05-16T06:05:29.909Z,95150.66
2023-05-16T06:07:59.620Z,95146.88
2023-05-16T06:10:29.164Z,95150.34
2023-05-16T06:12:58.630Z,95142.81
2023-05-16T06:15:29.832Z,95148.72
2023-05-16T06:17:59.528Z,95149.53
2023-05-16T06:20:29.217Z,95148.44
2023-05-16T06:22:59.532Z,95144.91
2023-05-16T06:25:29.051Z,95144.84
2023-05-16T06:27:58.637Z,95149.66
2023-05-16T06:30:29.578Z,95153.38
2023-05-16T06:32:59.105Z,95146.84
2023-05-16T06:35:28.794Z,95150.06
2023-05-16T06:37:58.441Z,95148.91
2023-05-16T06:40:28.044Z,95140.78
2023-05-16T06:42:58.476Z,95136.47
2023-05-16T06:45:29.554Z,95145.59
2023-05-16T06:47:59.648Z,95140.22
2023-05-16T06:50:29.191Z,95144.44
2023-05-16T06:52:58.725Z,95145.50
2023-05-16T06:55:28.600Z,95147.09
2023-05-16T06:57:58.286Z,95146.56
2023-05-16T07:00:29.370Z,95140.88
2023-05-16T07:02:58.922Z,95145.72
2023-05-16T07:05:28.674Z,95143.03
2023-05-16T07:07:59.139Z,95139.53
2023-05-16T07:10:28.766Z,95144.34
2023-05-16T07:13:05.140Z,95148.41
2023-05-16T07:15:36.083Z,95146.00
2023-05-16T07:18:05.836Z,95155.69
2023-05-16T07:20:35.466Z,95145.16
2023-05-16T07:23:04.936Z,95154.03
2023-05-16T07:25:34.716Z,95153.22
2023-05-16T07:28:04.308Z,95151.06
2023-05-16T07:30:35.444Z,95150.75
2023-05-16T07:33:05.195Z,95152.34
2023-05-16T07:35:34.871Z,95154.28
2023-05-16T07:38:04.406Z,95156.97
2023-05-16T07:40:33.927Z,95164.22
2023-05-16T07:43:03.713Z,95155.03
2023-05-16T07:45:33.208Z,95155.88
2023-05-16T07:48:04.563Z,95163.91
2023-05-16T07:50:34.842Z,95177.09
2023-05-16T07:53:04.408Z,95173.31
2023-05-16T07:55:34.005Z,95178.13
2023-05-16T07:58:04.031Z,95181.63
2023-05-16T08:00:33.916Z,95177.84
2023-05-16T08:03:05.701Z,95186.47
2023-05-16T08:05:35.375Z,95190.00
2023-05-16T08:08:04.990Z,95183.56
2023-05-16T08:10:34.544Z,95180.88
2023-05-16T08:13:04.095Z,95180.94
2023-05-16T08:15:33.704Z,95181.22
2023-05-16T08:18:07.168Z,95182.28
2023-05-16T08:20:36.794Z,95181.25
2023-05-16T08:23:06.549Z,95183.66
2023-05-16T08:25:39.991Z,95181.78
2023-05-16T08:28:19.482Z,95181.50
2023-05-16T08:30:49.054Z,95179.91
2023-05-16T08:33:20.204Z,95183.66
2023-05-16T08:35:52.799Z,95188.25
2023-05-16T08:38:22.357Z,95186.94
2023-05-16T08:40:51.972Z,95187.19
2023-05-16T08:43:21.802Z,95189.09
2023-05-16T08:45:51.679Z,95186.16
2023-05-16T08:48:25.585Z,95190.44
2023-05-16T08:50:55.273Z,95188.31
2023-05-16T08:53:42.114Z,95188.03
2023-05-16T08:56:14.418Z,95185.88
2023-05-16T08:58:44.153Z,95200.66
2023-05-16T09:01:13.920Z,95196.34
2023-05-16T09:03:45.377Z,95203.56
2023-05-16T09:06:16.088Z,95197.88
2023-05-16T09:08:45.756Z,95201.31
2023-05-16T09:11:15.283Z,95196.44
2023-05-16T09:13:44.797Z,95192.63
2023-05-16T09:16:16.195Z,95181.28
2023-05-16T09:18:55.087Z,95179.63
2023-05-16T09:21:30.030Z,95175.50
2023-05-16T09:24:05.871Z,95176.84
2023-05-16T09:26:37.081Z,95179.44
2023-05-16T09:29:13.095Z,95170.97
2023-05-16T09:31:42.840Z,95175.28
2023-05-16T09:34:14.019Z,95177.16
2023-05-16T09:36:44.407Z,95176.06
2023-05-16T09:39:17.271Z,95179.66
2023-05-16T09:41:46.902Z,95176.16
2023-05-16T09:44:19.193Z,95180.75
2023-05-16T09:46:49.060Z,95177.75
2023-05-16T09:49:20.041Z,95178.84
2023-05-16T09:51:49.678Z,95184.25
2023-05-16T09:54:32.867Z,95178.88
2023-05-16T09:57:03.245Z,95188.28
2023-05-16T09:59:37.196Z,95175.38
2023-05-16T10:02:08.790Z,95184.56
2023-05-16T10:04:39.799Z,95191.56
2023-05-16T10:07:09.758Z,95197.75
2023-05-16T10:09:41.885Z,95188.56
2023-05-16T10:12:14.376Z,95199.34
2023-05-16T10:14:46.437Z,95195.63
2023-05-16T10:17:17.440Z,95199.69
2023-05-16T10:19:49.779Z,95191.06
2023-05-16T10:22:21.163Z,95192.97
2023-05-16T10:25:11.020Z,95190.28
2023-05-16T10:27:41.377Z,95194.91
2023-05-16T10:30:13.273Z,95187.09
2023-05-16T10:32:43.037Z,95186.06
2023-05-16T10:35:14.548Z,95188.53
2023-05-16T10:37:44.896Z,95189.38
2023-05-16T10:40:15.570Z,95195.59
2023-05-16T10:42:56.593Z,95198.28
2023-05-16T10:45:27.041Z,95202.06
2023-05-16T10:47:59.144Z,95202.84
2023-05-16T10:50:40.085Z,95210.09
2023-05-16T10:53:22.732Z,95210.34
2023-05-16T10:56:09.965Z,95204.97
2023-05-16T10:58:45.619Z,95213.28
2023-05-16T11:01:24.409Z,95207.03
2023-05-16T11:04:18.185Z,95208.59
2023-05-16T11:06:54.632Z,95207.56
2023-05-16T11:09:28.409Z,95208.09
2023-05-16T11:12:03.911Z,95207.53
2023-05-16T11:14:42.119Z,95203.22
2023-05-16T11:17:14.345Z,95204.25
2023-05-16T11:19:47.193Z,95201.00
2023-05-16T11:22:30.193Z,95193.41
2023-05-16T11:25:02.898Z,95192.53
2023-05-16T11:27:36.122Z,95189.56
2023-05-16T11:30:15.697Z,95186.28
2023-05-16T11:32:47.441Z,95188.38
2023-05-16T11:35:19.408Z,95192.34
2023-05-16T11:37:50.614Z,95186.69
2023-05-16T11:40:20.164Z,95181.75
2023-05-16T11:42:50.280Z,95181.41
2023-05-16T11:45:24.521Z,95184.03
2023-05-16T11:47:54.321Z,95183.22
2023-05-16T11:50:25.395Z,95184.25
2023-05-16T11:52:57.505Z,95174.50
2023-05-16T11:58:03.308Z,95168.97
2023-05-16T12:00:32.847Z,95170.56
2023-05-16T12:03:05.823Z,95168.34
2023-05-16T12:05:36.319Z,95171.50
2023-05-16T12:08:07.445Z,95172.28
2023-05-16T12:10:37.265Z,95170.09
2023-05-16T12:13:06.953Z,95171.91
2023-05-16T12:15:36.746Z,95175.28
2023-05-16T12:18:07.158Z,95182.66
2023-05-16T12:20:36.923Z,95185.75
2023-05-16T12:23:12.109Z,95180.19
2023-05-16T12:25:49.369Z,95178.34
2023-05-16T12:28:19.139Z,95182.22
2023-05-16T12:30:48.745Z,95180.38
2023-05-16T12:33:18.543Z,95176.28
2023-05-16T12:35:48.546Z,95171.91
2023-05-16T12:38:22.166Z,95172.50
2023-05-16T12:40:52.093Z,95170.88
2023-05-16T12:43:23.463Z,95166.00
2023-05-16T12:45:55.096Z,95168.41
2023-05-16T12:48:35.319Z,95163.44
2023-05-16T12:51:14.775Z,95158.72
2023-05-16T12:54:01.275Z,95161.22
2023-05-16T12:56:41.362Z,95148.00
2023-05-16T12:59:12.168Z,95154.09
2023-05-16T13:01:44.402Z,95155.78
2023-05-16T13:04:18.355Z,95153.75
2023-05-16T13:09:26.209Z,95175.72
2023-05-16T13:11:56.848Z,95169.03
2023-05-16T13:14:26.622Z,95175.28
2023-05-16T13:16:56.157Z,95185.97
2023-05-16T13:19:26.263Z,95184.56
2023-05-16T13:21:56.134Z,95186.25
2023-05-16T13:24:27.147Z,95189.44
2023-05-16T13:26:56.676Z,95191.34
2023-05-16T13:29:26.405Z,95190.78
2023-05-16T13:31:56.018Z,95192.63
2023-05-16T13:34:25.553Z,95196.63
2023-05-16T13:36:55.223Z,95197.38
2023-05-16T13:39:26.342Z,95209.47
2023-05-16T13:41:55.940Z,95208.31
2023-05-16T13:44:26.524Z,95210.78
2023-05-16T13:46:56.820Z,95209.97
2023-05-16T13:49:26.522Z,95208.97
2023-05-16T13:51:57.228Z,95213.34
2023-05-16T13:54:28.375Z,95211.72
2023-05-16T13:56:58.102Z,95215.84
2023-05-16T13:59:48.692Z,95221.81
2023-05-16T14:02:17.285Z,95221.59
2023-05-16T14:04:49.137Z,95226.22
2023-05-16T14:07:19.595Z,95237.91
2023-05-16T14:09:50.560Z,95243.63
2023-05-16T14:12:20.065Z,95245.56
2023-05-16T14:14:49.759Z,95245.91
2023-05-16T14:17:19.276Z,95252.41
2023-05-16T14:19:48.960Z,95247.63
2023-05-16T14:22:18.893Z,95241.47
2023-05-16T14:24:49.918Z,95245.03
2023-05-16T14:27:19.541Z,95245.31
2023-05-16T14:29:49.563Z,95241.53
2023-05-16T14:32:19.403Z,95247.44
2023-05-16T14:34:49.124Z,95238.50
2023-05-16T14:37:20.263Z,95241.44
2023-05-16T14:39:52.984Z,95240.34
2023-05-16T14:42:22.557Z,95239.31
2023-05-16T14:44:52.014Z,95238.25
2023-05-16T14:47:21.577Z,95239.34
2023-05-16T14:49:52.942Z,95233.69
2023-05-16T14:52:22.575Z,95240.41
2023-05-16T14:54:53.437Z,95252.50
2023-05-16T14:57:23.041Z,95249.28
2023-05-16T14:59:52.562Z,95253.91
2023-05-16T15:02:22.126Z,95252.03
2023-05-16T15:04:51.699Z,95256.09
2023-05-16T15:07:22.247Z,95263.72
2023-05-16T15:09:53.056Z,95258.88
2023-05-16T15:12:22.832Z,95260.81
2023-05-16T15:14:52.525Z,95264.34
2023-05-16T15:17:22.107Z,95266.22
2023-05-16T15:19:54.116Z,95264.34
2023-05-16T15:22:23.617Z,95260.88
2023-05-16T15:24:54.557Z,95262.81
2023-05-16T15:27:24.066Z,95265.84
2023-05-16T15:29:53.711Z,95268.28
2023-05-16T15:32:23.781Z,95269.91
2023-05-16T15:34:53.417Z,95264.53
2023-05-16T15:37:23.092Z,95268.84
2023-05-16T15:39:54.030Z,95272.34
2023-05-16T15:42:23.579Z,95274.25
2023-05-16T15:44:53.140Z,95270.75
2023-05-16T15:47:22.755Z,95281.00
2023-05-16T15:49:52.249Z,95286.66
2023-05-16T15:52:22.935Z,95283.44
2023-05-16T15:54:53.970Z,95282.34
2023-05-16T15:57:23.514Z,95279.66
2023-05-16T15:59:53.134Z,95283.97
2023-05-16T16:02:22.812Z,95278.31
2023-05-16T16:04:52.874Z,95283.41
2023-05-16T16:07:22.432Z,95284.50
2023-05-16T16:09:53.335Z,95282.59
2023-05-16T16:12:22.822Z,95287.47
2023-05-16T16:14:53.005Z,95292.84
2023-05-16T16:17:22.746Z,95289.09
2023-05-16T16:19:52.397Z,95293.44
2023-05-16T16:22:22.575Z,95301.28
2023-05-16T16:24:54.279Z,95290.78
2023-05-16T16:27:23.726Z,95295.38
2023-05-16T16:29:53.393Z,95299.41
2023-05-16T16:32:22.975Z,95302.38
2023-05-16T16:34:53.824Z,95293.78
2023-05-16T16:37:23.489Z,95298.34
2023-05-16T16:39:54.471Z,95302.13
2023-05-16T16:42:25.325Z,95315.31
2023-05-16T16:44:55.056Z,95315.88
2023-05-16T16:47:25.706Z,95317.75
2023-05-16T16:49:56.227Z,95324.22
2023-05-16T16:52:25.877Z,95324.25
2023-05-16T16:54:56.966Z,95323.75
2023-05-16T16:57:26.759Z,95325.09
2023-05-16T16:59:59.405Z,95336.13
2023-05-16T17:02:29.310Z,95338.03
2023-05-16T17:04:58.896Z,95335.63
2023-05-16T17:07:29.035Z,95346.91
2023-05-16T17:10:01.073Z,95348.00
2023-05-16T17:12:32.223Z,95345.59
2023-05-16T17:15:03.503Z,95346.94
2023-05-16T17:17:33.113Z,95345.59
2023-05-16T17:20:06.613Z,95350.16
2023-05-16T17:22:36.796Z,95346.94
2023-05-16T17:25:09.826Z,95351.50
2023-05-16T17:27:40.710Z,95347.25
2023-05-16T17:30:11.719Z,95354.50
2023-05-16T17:32:41.438Z,95358.28
2023-05-16T17:35:11.169Z,95360.97
2023-05-16T17:37:41.451Z,95356.66
2023-05-16T17:40:17.020Z,95360.44
2023-05-16T17:42:47.244Z,95369.03
2023-05-16T17:45:17.006Z,95367.44
2023-05-16T17:47:46.854Z,95367.16
2023-05-16T17:50:16.457Z,95364.47
2023-05-16T17:52:47.231Z,95366.91
2023-05-16T17:55:18.491Z,95365.03
2023-05-16T17:57:48.115Z,95365.25
2023-05-16T18:00:22.509Z,95367.72
2023-05-16T18:02:52.210Z,95361.78
2023-05-16T18:05:22.265Z,95363.94
2023-05-16T18:07:51.959Z,95370.94
2023-05-16T18:10:22.898Z,95368.53
2023-05-16T18:12:52.531Z,95369.06
2023-05-16T18:15:22.421Z,95379.53
2023-05-16T18:17:52.512Z,95373.63
2023-05-16T18:20:23.455Z,95379.53
2023-05-16T18:22:53.100Z,95380.34
2023-05-16T18:25:24.229Z,95383.84
2023-05-16T18:27:53.820Z,95390.28
2023-05-16T18:30:23.812Z,95393.78
2023-05-16T18:32:53.454Z,95387.88
2023-05-16T18:35:23.625Z,95395.13
2023-05-16T18:37:53.888Z,95399.19
2023-05-16T18:40:25.900Z,95393.81
2023-05-16T18:42:56.710Z,95398.63
2023-05-16T18:45:29.800Z,95408.03
2023-05-16T18:47:59.795Z,95417.19
2023-05-16T18:50:29.512Z,95415.84
2023-05-16T18:52:59.032Z,95419.84
2023-05-16T18:55:30.133Z,95433.28
2023-05-16T18:57:59.777Z,95433.56
2023-05-16T19:00:30.003Z,95437.31
2023-05-16T19:02:59.557Z,95446.97
2023-05-16T19:05:29.397Z,95442.66
2023-05-16T19:07:59.218Z,95452.06
2023-05-16T19:10:31.966Z,95456.66
2023-05-16T19:13:10.508Z,95452.06
2023-05-16T19:15:40.498Z,95463.06
2023-05-16T19:18:10.170Z,95459.28
2023-05-16T19:20:39.879Z,95469.22
2023-05-16T19:23:09.431Z,95468.13
2023-05-16T19:25:45.689Z,95475.91
2023-05-16T19:28:15.780Z,95473.22
2023-05-16T19:30:45.365Z,95476.16
2023-05-16T19:33:14.986Z,95481.25
2023-05-16T19:35:44.745Z,95487.13
2023-05-16T19:38:14.226Z,95493.56
2023-05-16T19:40:49.910Z,95499.47
2023-05-16T19:43:19.699Z,95496.78
2023-05-16T19:45:49.279Z,95498.66
2023-05-16T19:48:19.131Z,95500.78
2023-05-16T19:50:48.665Z,95505.09
2023-05-16T19:53:18.143Z,95504.53
2023-05-16T19:55:49.495Z,95520.09
2023-05-16T19:58:19.071Z,95514.19
2023-05-16T20:00:48.609Z,95510.97
2023-05-16T20:03:18.156Z,95511.75
2023-05-16T20:05:47.926Z,95513.63
2023-05-16T20:08:17.460Z,95513.06
2023-05-16T20:10:48.453Z,95521.34
2023-05-16T20:13:20.453Z,95523.50
2023-05-16T20:15:49.998Z,95520.81
2023-05-16T20:18:19.616Z,95529.38
2023-05-16T20:20:49.178Z,95527.50
2023-05-16T20:23:18.708Z,95533.66
2023-05-16T20:25:50.009Z,95536.63
2023-05-16T20:28:19.486Z,95533.38
2023-05-16T20:30:49.152Z,95540.88
2023-05-16T20:33:18.718Z,95532.81
2023-05-16T20:35:48.408Z,95541.13
2023-05-16T20:38:18.040Z,95540.88
2023-05-16T20:40:49.118Z,95547.03
2023-05-16T20:43:18.721Z,95553.72
2023-05-16T20:45:48.324Z,95551.06
2023-05-16T20:48:17.988Z,95548.06
2023-05-16T20:50:47.583Z,95550.44
2023-05-16T20:53:17.413Z,95553.38
2023-05-16T20:55:49.169Z,95549.91
2023-05-16T20:58:18.673Z,95553.38
2023-05-16T21:00:48.158Z,95549.59
2023-05-16T21:03:17.683Z,95561.41
2023-05-16T21:05:47.167Z,95549.03
2023-05-16T21:08:16.883Z,95561.34
2023-05-16T21:10:46.590Z,95569.41
2023-05-16T21:13:17.638Z,95562.41
2023-05-16T21:15:47.081Z,95557.31
2023-05-16T21:18:16.782Z,95556.75
2023-05-16T21:20:49.596Z,95566.66
2023-05-16T21:23:19.390Z,95568.81
2023-05-16T21:25:48.883Z,95575.81
2023-05-16T21:28:19.687Z,95574.44
2023-05-16T21:30:49.490Z,95575.75
2023-05-16T21:33:19.075Z,95587.81
2023-05-16T21:35:48.621Z,95587.50
2023-05-16T21:38:18.343Z,95590.19
2023-05-16T21:40:48.103Z,95592.88
2023-05-16T21:43:18.972Z,95604.31
2023-05-16T21:45:48.709Z,95602.13
2023-05-16T21:48:18.473Z,95613.94
2023-05-16T21:50:48.228Z,95619.78
2023-05-16T21:53:17.671Z,95615.50
2023-05-16T21:55:47.193Z,95625.66
2023-05-16T21:58:19.034Z,95619.78
2023-05-16T22:00:50.151Z,95626.44
2023-05-16T22:03:21.251Z,95628.31
2023-05-16T22:05:50.932Z,95633.13
2023-05-16T22:08:20.670Z,95632.31
2023-05-16T22:10:50.230Z,95636.59
